createdAt,value
2022-08-21T00:00:51.197Z,18.60
2022-08-21T00:01:51.270Z,18.49
2022-08-21T00:02:51.311Z,18.55
2022-08-21T00:03:51.261Z,18.51
2022-08-21T00:04:57.125Z,18.52
2022-08-21T00:05:51.302Z,18.52
2022-08-21T00:06:51.329Z,18.49
2022-08-21T00:07:51.349Z,18.52
2022-08-21T00:08:51.369Z,18.53
2022-08-21T00:09:51.391Z,18.51
2022-08-21T00:10:51.411Z,18.48
2022-08-21T00:11:51.433Z,18.46
2022-08-21T00:12:51.488Z,18.42
2022-08-21T00:13:51.478Z,18.42
2022-08-21T00:14:51.496Z,18.43
2022-08-21T00:15:51.519Z,18.43
2022-08-21T00:16:51.547Z,18.41
2022-08-21T00:17:51.561Z,18.48
2022-08-21T00:18:51.583Z,18.39
2022-08-21T00:19:51.606Z,18.42
2022-08-21T00:20:51.625Z,18.41
2022-08-21T00:21:51.646Z,18.39
2022-08-21T00:22:51.693Z,18.37
2022-08-21T00:23:51.689Z,18.37
2022-08-21T00:24:51.710Z,18.41
2022-08-21T00:25:51.732Z,18.33
2022-08-21T00:26:51.754Z,18.33
2022-08-21T00:27:51.772Z,18.37
2022-08-21T00:28:51.793Z,18.34
2022-08-21T00:29:51.815Z,18.39
2022-08-21T00:30:51.838Z,18.34
2022-08-21T00:31:51.859Z,18.28
2022-08-21T00:32:51.959Z,18.30
2022-08-21T00:33:51.902Z,18.30
2022-08-21T00:34:51.923Z,18.24
2022-08-21T00:35:51.945Z,18.27
2022-08-21T00:36:51.964Z,18.27
2022-08-21T00:37:51.986Z,18.26
2022-08-21T00:38:52.008Z,18.30
2022-08-21T00:39:52.066Z,18.27
2022-08-21T00:40:52.048Z,18.30
2022-08-21T00:41:52.074Z,18.42
2022-08-21T00:42:53.799Z,18.36
2022-08-21T00:43:52.116Z,18.27
2022-08-21T00:44:52.135Z,18.33
2022-08-21T00:45:52.157Z,18.27
2022-08-21T00:46:52.177Z,18.28
2022-08-21T00:47:52.198Z,18.28
2022-08-21T00:48:52.220Z,18.30
2022-08-21T00:49:52.242Z,18.24
2022-08-21T00:50:52.262Z,18.16
2022-08-21T00:51:52.283Z,18.18
2022-08-21T00:52:52.306Z,18.18
2022-08-21T00:53:53.713Z,18.13
2022-08-21T00:54:52.346Z,18.13
2022-08-21T00:55:52.366Z,18.15
2022-08-21T00:56:52.389Z,18.16
2022-08-21T00:57:52.410Z,18.15
2022-08-21T00:58:55.086Z,18.15
2022-08-21T00:59:52.450Z,18.18
2022-08-21T01:00:52.510Z,18.16
2022-08-21T01:01:52.503Z,18.15
2022-08-21T01:02:52.515Z,18.15
2022-08-21T01:03:52.536Z,18.08
2022-08-21T01:04:52.571Z,18.02
2022-08-21T01:05:52.577Z,18.00
2022-08-21T01:06:52.658Z,18.00
2022-08-21T01:07:52.617Z,18.05
2022-08-21T01:08:52.647Z,17.98
2022-08-21T01:09:52.661Z,18.00
2022-08-21T01:10:54.640Z,18.06
2022-08-21T01:11:52.707Z,17.98
2022-08-21T01:12:52.723Z,17.95
2022-08-21T01:13:52.742Z,17.98
2022-08-21T01:14:52.766Z,18.02
2022-08-21T01:15:52.793Z,17.98
2022-08-21T01:16:52.809Z,17.97
2022-08-21T01:17:52.828Z,18.02
2022-08-21T01:18:52.852Z,18.08
2022-08-21T01:19:52.871Z,17.94
2022-08-21T01:20:52.890Z,17.93
2022-08-21T01:21:52.914Z,17.95
2022-08-21T01:22:52.934Z,17.97
2022-08-21T01:23:53.007Z,17.91
2022-08-21T01:24:52.975Z,17.93
2022-08-21T01:25:52.997Z,17.90
2022-08-21T01:26:53.019Z,17.91
2022-08-21T01:27:53.038Z,17.91
2022-08-21T01:28:53.059Z,17.90
2022-08-21T01:29:53.080Z,17.88
2022-08-21T01:30:53.101Z,17.90
2022-08-21T01:31:53.122Z,17.90
2022-08-21T01:32:53.141Z,17.91
2022-08-21T01:33:53.163Z,17.88
2022-08-21T01:34:53.188Z,17.90
2022-08-21T01:35:53.202Z,17.84
2022-08-21T01:36:53.225Z,17.88
2022-08-21T01:37:53.248Z,17.90
2022-08-21T01:38:53.267Z,17.87
2022-08-21T01:39:53.325Z,17.86
2022-08-21T01:40:53.309Z,17.84
2022-08-21T01:41:53.329Z,17.84
2022-08-21T01:42:53.352Z,17.86
2022-08-21T01:43:53.372Z,17.84
2022-08-21T01:44:54.411Z,17.86
2022-08-21T01:45:53.414Z,17.86
2022-08-21T01:46:53.435Z,17.79
2022-08-21T01:47:53.459Z,17.79
2022-08-21T01:48:53.476Z,17.79
2022-08-21T01:49:53.496Z,17.76
2022-08-21T01:50:56.981Z,17.73
2022-08-21T01:51:53.539Z,17.78
2022-08-21T01:52:53.558Z,17.76
2022-08-21T01:53:53.587Z,17.78
2022-08-21T01:54:55.241Z,17.79
2022-08-21T01:55:53.621Z,17.73
2022-08-21T01:56:53.642Z,17.73
2022-08-21T01:57:53.665Z,17.69
2022-08-21T01:58:53.685Z,17.73
2022-08-21T01:59:53.723Z,17.66
2022-08-21T02:00:53.776Z,17.75
2022-08-21T02:01:53.746Z,17.65
2022-08-21T02:02:53.811Z,17.60
2022-08-21T02:03:53.789Z,17.65
2022-08-21T02:04:53.810Z,17.66
2022-08-21T02:05:53.830Z,17.68
2022-08-21T02:06:53.850Z,17.66
2022-08-21T02:07:53.871Z,17.56
2022-08-21T02:08:53.893Z,17.66
2022-08-21T02:09:53.918Z,17.60
2022-08-21T02:10:53.940Z,17.54
2022-08-21T02:11:53.957Z,17.53
2022-08-21T02:12:53.976Z,17.63
2022-08-21T02:13:53.996Z,17.63
2022-08-21T02:14:54.017Z,17.57
2022-08-21T02:15:54.038Z,17.53
2022-08-21T02:17:05.278Z,17.54
2022-08-21T02:17:54.079Z,17.50
2022-08-21T02:18:54.101Z,17.57
2022-08-21T02:19:54.122Z,17.56
2022-08-21T02:20:56.287Z,17.53
2022-08-21T02:21:54.164Z,17.53
2022-08-21T02:22:54.226Z,17.56
2022-08-21T02:23:54.204Z,17.46
2022-08-21T02:24:55.366Z,17.41
2022-08-21T02:25:54.244Z,17.50
2022-08-21T02:26:54.269Z,17.46
2022-08-21T02:27:54.287Z,17.42
2022-08-21T02:28:54.308Z,17.41
2022-08-21T02:29:54.327Z,17.34
2022-08-21T02:30:54.349Z,17.31
2022-08-21T02:31:54.370Z,17.30
2022-08-21T02:32:54.423Z,17.27
2022-08-21T02:33:54.410Z,17.28
2022-08-21T02:34:54.439Z,17.30
2022-08-21T02:35:54.467Z,17.24
2022-08-21T02:36:59.618Z,17.24
2022-08-21T02:37:54.505Z,17.20
2022-08-21T02:38:54.518Z,17.19
2022-08-21T02:39:54.572Z,17.19
2022-08-21T02:40:54.555Z,17.19
2022-08-21T02:41:54.576Z,17.14
2022-08-21T02:42:54.673Z,17.20
2022-08-21T02:43:54.616Z,17.14
2022-08-21T02:44:54.635Z,17.09
2022-08-21T02:45:54.655Z,17.07
2022-08-21T02:46:54.678Z,17.05
2022-08-21T02:47:54.700Z,17.07
2022-08-21T02:48:54.721Z,17.07
2022-08-21T02:49:54.746Z,17.05
2022-08-21T02:50:54.760Z,17.01
2022-08-21T02:51:54.782Z,17.01
2022-08-21T02:52:55.018Z,16.98
2022-08-21T02:53:54.826Z,17.09
2022-08-21T02:54:54.843Z,17.05
2022-08-21T02:55:54.865Z,16.95
2022-08-21T02:56:54.884Z,16.98
2022-08-21T02:57:54.901Z,16.97
2022-08-21T02:58:54.925Z,16.86
2022-08-21T02:59:54.944Z,16.92
2022-08-21T03:00:54.964Z,16.86
2022-08-21T03:01:55.047Z,16.94
2022-08-21T03:02:55.045Z,16.91
2022-08-21T03:03:55.025Z,16.89
2022-08-21T03:04:55.052Z,16.86
2022-08-21T03:05:55.064Z,16.84
2022-08-21T03:06:55.086Z,16.82
2022-08-21T03:07:55.107Z,16.82
2022-08-21T03:08:55.126Z,16.79
2022-08-21T03:09:56.015Z,16.76
2022-08-21T03:10:55.166Z,16.76
2022-08-21T03:11:55.189Z,16.84
2022-08-21T03:12:55.206Z,16.72
2022-08-21T03:13:55.230Z,16.68
2022-08-21T03:14:55.249Z,16.73
2022-08-21T03:15:55.268Z,16.59
2022-08-21T03:16:55.288Z,16.61
2022-08-21T03:17:55.310Z,16.64
2022-08-21T03:18:55.329Z,16.62
2022-08-21T03:19:55.349Z,16.64
2022-08-21T03:20:55.370Z,16.62
2022-08-21T03:21:55.389Z,16.54
2022-08-21T03:22:55.408Z,16.54
2022-08-21T03:23:55.430Z,16.50
2022-08-21T03:24:55.448Z,16.50
2022-08-21T03:25:55.473Z,16.59
2022-08-21T03:26:55.491Z,16.43
2022-08-21T03:27:58.777Z,16.51
2022-08-21T03:28:55.532Z,16.40
2022-08-21T03:29:55.551Z,16.50
2022-08-21T03:30:55.574Z,16.40
2022-08-21T03:31:55.590Z,16.40
2022-08-21T03:32:55.610Z,16.29
2022-08-21T03:33:55.633Z,16.37
2022-08-21T03:34:55.654Z,16.31
2022-08-21T03:35:55.673Z,16.28
2022-08-21T03:36:55.689Z,16.28
2022-08-21T03:37:55.714Z,16.28
2022-08-21T03:38:55.733Z,16.28
2022-08-21T03:39:55.816Z,16.37
2022-08-21T03:40:55.770Z,16.31
2022-08-21T03:41:55.790Z,16.25
2022-08-21T03:42:55.812Z,16.37
2022-08-21T03:43:55.834Z,16.28
2022-08-21T03:44:55.852Z,16.25
2022-08-21T03:45:55.874Z,16.24
2022-08-21T03:46:55.894Z,16.24
2022-08-21T03:47:55.913Z,16.22
2022-08-21T03:48:55.932Z,16.24
2022-08-21T03:49:55.952Z,16.28
2022-08-21T03:50:55.975Z,16.28
2022-08-21T03:51:59.722Z,16.22
2022-08-21T03:52:56.010Z,16.21
2022-08-21T03:53:56.033Z,16.24
2022-08-21T03:54:56.057Z,16.25
2022-08-21T03:55:56.075Z,16.16
2022-08-21T03:56:56.095Z,16.18
2022-08-21T03:57:56.114Z,16.09
2022-08-21T03:58:56.134Z,16.17
2022-08-21T03:59:56.156Z,16.12
2022-08-21T04:00:56.174Z,16.17
2022-08-21T04:01:56.265Z,16.13
2022-08-21T04:02:56.210Z,16.21
2022-08-21T04:03:56.231Z,16.10
2022-08-21T04:04:56.250Z,16.17
2022-08-21T04:05:56.271Z,16.10
2022-08-21T04:06:56.290Z,16.09
2022-08-21T04:07:56.311Z,16.10
2022-08-21T04:08:56.343Z,16.12
2022-08-21T04:09:56.349Z,16.00
2022-08-21T04:10:56.380Z,16.00
2022-08-21T04:11:56.396Z,15.99
2022-08-21T04:12:56.409Z,16.06
2022-08-21T04:13:56.432Z,16.02
2022-08-21T04:14:56.451Z,16.02
2022-08-21T04:15:56.470Z,16.02
2022-08-21T04:16:56.488Z,16.08
2022-08-21T04:17:56.508Z,16.02
2022-08-21T04:18:56.529Z,16.03
2022-08-21T04:19:56.547Z,15.98
2022-08-21T04:20:56.566Z,15.88
2022-08-21T04:21:56.589Z,15.92
2022-08-21T04:22:56.819Z,15.98
2022-08-21T04:23:56.679Z,15.91
2022-08-21T04:24:56.646Z,15.98
2022-08-21T04:25:56.672Z,15.94
2022-08-21T04:26:56.688Z,15.99
2022-08-21T04:27:56.708Z,15.92
2022-08-21T04:28:56.726Z,15.99
2022-08-21T04:29:56.750Z,15.91
2022-08-21T04:30:56.767Z,15.99
2022-08-21T04:31:56.786Z,15.94
2022-08-21T04:32:56.933Z,15.92
2022-08-21T04:33:56.827Z,15.99
2022-08-21T04:34:56.844Z,15.96
2022-08-21T04:35:56.864Z,15.96
2022-08-21T04:36:56.885Z,15.94
2022-08-21T04:37:56.906Z,15.94
2022-08-21T04:38:56.925Z,15.94
2022-08-21T04:39:56.997Z,15.84
2022-08-21T04:40:56.964Z,15.96
2022-08-21T04:41:56.984Z,15.91
2022-08-21T04:42:57.168Z,15.98
2022-08-21T04:43:57.027Z,15.90
2022-08-21T04:44:57.045Z,15.87
2022-08-21T04:45:57.063Z,15.88
2022-08-21T04:46:57.084Z,15.91
2022-08-21T04:47:57.109Z,15.99
2022-08-21T04:48:57.123Z,15.94
2022-08-21T04:49:57.143Z,15.94
2022-08-21T04:50:57.163Z,15.99
2022-08-21T04:51:57.182Z,16.00
2022-08-21T04:52:57.339Z,15.99
2022-08-21T04:53:57.226Z,15.94
2022-08-21T04:54:57.242Z,16.06
2022-08-21T04:55:57.264Z,16.05
2022-08-21T04:56:57.286Z,16.05
2022-08-21T04:57:57.301Z,16.05
2022-08-21T04:58:57.326Z,16.03
2022-08-21T04:59:57.344Z,15.99
2022-08-21T05:00:57.365Z,16.03
2022-08-21T05:01:57.445Z,16.02
2022-08-21T05:02:57.637Z,16.10
2022-08-21T05:03:57.421Z,16.12
2022-08-21T05:04:57.442Z,16.17
2022-08-21T05:05:57.460Z,16.13
2022-08-21T05:06:57.484Z,16.08
2022-08-21T05:07:57.502Z,16.18
2022-08-21T05:08:58.019Z,16.08
2022-08-21T05:09:57.543Z,16.16
2022-08-21T05:11:00.505Z,16.09
2022-08-21T05:11:57.582Z,16.21
2022-08-21T05:12:57.778Z,16.13
2022-08-21T05:13:57.638Z,16.18
2022-08-21T05:14:57.646Z,16.25
2022-08-21T05:15:57.666Z,16.18
2022-08-21T05:16:57.681Z,16.22
2022-08-21T05:18:01.013Z,16.26
2022-08-21T05:18:57.724Z,16.22
2022-08-21T05:19:57.743Z,16.28
2022-08-21T05:20:57.762Z,16.24
2022-08-21T05:21:57.782Z,16.26
2022-08-21T05:22:57.978Z,16.31
2022-08-21T05:23:58.126Z,16.39
2022-08-21T05:24:57.844Z,16.40
2022-08-21T05:25:57.864Z,16.34
2022-08-21T05:26:57.886Z,16.31
2022-08-21T05:27:58.211Z,16.39
2022-08-21T05:28:57.922Z,16.37
2022-08-21T05:29:57.947Z,16.41
2022-08-21T05:30:57.965Z,16.36
2022-08-21T05:31:57.986Z,16.32
2022-08-21T05:32:58.209Z,16.39
2022-08-21T05:33:58.029Z,16.40
2022-08-21T05:34:58.047Z,16.40
2022-08-21T05:35:58.068Z,16.41
2022-08-21T05:36:58.087Z,16.47
2022-08-21T05:37:58.111Z,16.41
2022-08-21T05:38:58.128Z,16.41
2022-08-21T05:40:20.579Z,16.44
2022-08-21T05:40:58.222Z,16.47
2022-08-21T05:41:58.188Z,16.46
2022-08-21T05:42:58.383Z,16.57
2022-08-21T05:43:58.233Z,16.54
2022-08-21T05:44:58.251Z,16.62
2022-08-21T05:45:58.272Z,16.59
2022-08-21T05:46:58.332Z,16.62
2022-08-21T05:47:58.330Z,16.62
2022-08-21T05:48:58.333Z,16.64
2022-08-21T05:49:58.353Z,16.62
2022-08-21T05:50:58.384Z,16.69
2022-08-21T05:51:58.397Z,16.62
2022-08-21T05:52:58.601Z,16.69
2022-08-21T05:53:58.437Z,16.76
2022-08-21T05:54:58.459Z,16.79
2022-08-21T05:55:58.480Z,16.74
2022-08-21T05:56:58.498Z,16.80
2022-08-21T05:57:58.525Z,16.89
2022-08-21T05:58:58.542Z,16.86
2022-08-21T05:59:58.563Z,16.89
2022-08-21T06:00:58.583Z,16.94
2022-08-21T06:02:01.213Z,16.92
2022-08-21T06:02:58.774Z,16.95
2022-08-21T06:03:58.645Z,16.99
2022-08-21T06:04:58.668Z,16.97
2022-08-21T06:05:58.688Z,16.99
2022-08-21T06:06:58.710Z,16.92
2022-08-21T06:07:58.732Z,16.98
2022-08-21T06:08:58.753Z,17.05
2022-08-21T06:09:58.771Z,17.01
2022-08-21T06:10:58.792Z,17.02
2022-08-21T06:11:58.814Z,16.99
2022-08-21T06:12:58.987Z,16.99
2022-08-21T06:13:58.856Z,17.12
2022-08-21T06:14:58.878Z,17.12
2022-08-21T06:15:58.898Z,17.10
2022-08-21T06:16:58.919Z,17.14
2022-08-21T06:17:58.939Z,17.12
2022-08-21T06:19:02.641Z,17.13
2022-08-21T06:19:58.982Z,17.14
2022-08-21T06:20:59.005Z,17.20
2022-08-21T06:21:59.025Z,17.23
2022-08-21T06:22:59.161Z,17.22
2022-08-21T06:23:59.069Z,17.24
2022-08-21T06:24:59.091Z,17.27
2022-08-21T06:25:59.111Z,17.27
2022-08-21T06:26:59.131Z,17.30
2022-08-21T06:27:59.153Z,17.38
2022-08-21T06:28:59.175Z,17.27
2022-08-21T06:29:59.194Z,17.32
2022-08-21T06:30:59.216Z,17.41
2022-08-21T06:31:59.252Z,17.42
2022-08-21T06:32:59.449Z,17.52
2022-08-21T06:33:59.282Z,17.53
2022-08-21T06:34:59.302Z,17.56
2022-08-21T06:35:59.323Z,17.54
2022-08-21T06:36:59.344Z,17.57
2022-08-21T06:37:59.366Z,17.56
2022-08-21T06:38:59.387Z,17.54
2022-08-21T06:39:59.460Z,17.60
2022-08-21T06:40:59.429Z,17.56
2022-08-21T06:41:59.454Z,17.66
2022-08-21T06:42:59.591Z,17.68
2022-08-21T06:43:59.495Z,17.63
2022-08-21T06:44:59.519Z,17.71
2022-08-21T06:45:59.539Z,17.69
2022-08-21T06:46:59.560Z,17.72
2022-08-21T06:47:59.583Z,17.80
2022-08-21T06:48:59.602Z,17.78
2022-08-21T06:49:59.625Z,17.78
2022-08-21T06:50:59.648Z,17.80
2022-08-21T06:51:59.670Z,17.84
2022-08-21T06:52:59.879Z,17.91
2022-08-21T06:53:59.715Z,17.95
2022-08-21T06:54:59.734Z,17.95
2022-08-21T06:55:59.759Z,17.98
2022-08-21T06:56:59.780Z,18.05
2022-08-21T06:57:59.798Z,18.13
2022-08-21T06:58:59.820Z,18.13
2022-08-21T06:59:59.845Z,18.15
2022-08-21T07:01:01.200Z,18.18
2022-08-21T07:01:59.961Z,18.28
2022-08-21T07:03:00.168Z,18.36
2022-08-21T07:03:59.932Z,18.42
2022-08-21T07:04:59.953Z,18.55
2022-08-21T07:05:59.977Z,18.51
2022-08-21T07:07:00.000Z,18.61
2022-08-21T07:08:00.025Z,18.64
2022-08-21T07:09:00.057Z,18.66
2022-08-21T07:10:00.068Z,18.70
2022-08-21T07:11:00.091Z,18.63
2022-08-21T07:12:00.116Z,18.71
2022-08-21T07:13:01.540Z,18.78
2022-08-21T07:14:00.155Z,18.91
2022-08-21T07:15:00.179Z,18.92
2022-08-21T07:16:03.878Z,18.91
2022-08-21T07:17:00.223Z,19.01
2022-08-21T07:18:00.251Z,19.07
2022-08-21T07:19:00.278Z,19.16
2022-08-21T07:20:00.291Z,19.12
2022-08-21T07:21:00.325Z,19.27
2022-08-21T07:22:00.354Z,19.32
2022-08-21T07:23:00.523Z,19.35
2022-08-21T07:24:00.384Z,19.35
2022-08-21T07:25:00.409Z,19.48
2022-08-21T07:26:00.430Z,19.44
2022-08-21T07:27:00.453Z,19.52
2022-08-21T07:28:00.477Z,19.55
2022-08-21T07:29:00.501Z,19.60
2022-08-21T07:30:00.526Z,19.60
2022-08-21T07:31:00.549Z,19.71
2022-08-21T07:32:00.571Z,19.78
2022-08-21T07:33:00.826Z,19.85
2022-08-21T07:34:00.617Z,19.92
2022-08-21T07:35:00.640Z,19.93
2022-08-21T07:36:00.664Z,20.03
2022-08-21T07:37:00.687Z,20.07
2022-08-21T07:38:00.712Z,20.08
2022-08-21T07:39:00.736Z,20.15
2022-08-21T07:40:00.801Z,20.11
2022-08-21T07:41:00.783Z,20.19
2022-08-21T07:42:03.916Z,20.26
2022-08-21T07:43:00.908Z,20.24
2022-08-21T07:44:00.856Z,20.34
2022-08-21T07:45:00.880Z,20.36
2022-08-21T07:46:00.902Z,20.42
2022-08-21T07:47:00.928Z,20.39
2022-08-21T07:48:00.953Z,20.32
2022-08-21T07:49:00.973Z,20.48
2022-08-21T07:50:00.999Z,20.56
2022-08-21T07:51:01.026Z,20.44
2022-08-21T07:52:01.051Z,20.60
2022-08-21T07:53:01.212Z,20.60
2022-08-21T07:54:01.099Z,20.63
2022-08-21T07:55:05.553Z,20.63
2022-08-21T07:56:01.145Z,20.58
2022-08-21T07:57:01.168Z,20.60
2022-08-21T07:58:01.193Z,20.77
2022-08-21T07:59:01.219Z,20.80
2022-08-21T08:00:01.246Z,20.78
2022-08-21T08:01:01.324Z,20.80
2022-08-21T08:02:01.296Z,20.77
2022-08-21T08:03:01.461Z,20.82
2022-08-21T08:04:01.346Z,20.83
2022-08-21T08:05:01.378Z,20.77
2022-08-21T08:06:01.395Z,20.88
2022-08-21T08:07:01.417Z,20.77
2022-08-21T08:08:01.440Z,20.80
2022-08-21T08:09:01.465Z,20.82
2022-08-21T08:10:01.488Z,20.75
2022-08-21T08:11:01.515Z,20.78
2022-08-21T08:12:01.538Z,20.77
2022-08-21T08:13:01.820Z,20.63
2022-08-21T08:14:01.588Z,20.64
2022-08-21T08:15:01.614Z,20.67
2022-08-21T08:16:01.636Z,20.67
2022-08-21T08:17:01.663Z,20.64
2022-08-21T08:18:01.687Z,20.58
2022-08-21T08:19:01.711Z,20.55
2022-08-21T08:20:01.732Z,20.64
2022-08-21T08:21:01.761Z,20.64
2022-08-21T08:22:01.782Z,20.59
2022-08-21T08:23:02.001Z,20.58
2022-08-21T08:24:19.216Z,20.56
2022-08-21T08:25:03.544Z,20.60
2022-08-21T08:26:01.880Z,20.58
2022-08-21T08:27:01.905Z,20.50
2022-08-21T08:28:01.927Z,20.55
2022-08-21T08:29:01.953Z,20.58
2022-08-21T08:30:01.977Z,20.55
2022-08-21T08:31:02.001Z,20.48
2022-08-21T08:32:02.027Z,20.49
2022-08-21T08:33:02.050Z,20.46
2022-08-21T08:34:02.073Z,20.50
2022-08-21T08:35:02.097Z,20.52
2022-08-21T08:36:06.402Z,20.49
2022-08-21T08:37:02.145Z,20.44
2022-08-21T08:38:02.170Z,20.49
2022-08-21T08:39:02.205Z,20.46
2022-08-21T08:40:04.426Z,20.46
2022-08-21T08:41:02.244Z,20.46
2022-08-21T08:42:02.280Z,20.55
2022-08-21T08:43:02.291Z,20.64
2022-08-21T08:44:02.314Z,20.67
2022-08-21T08:45:02.348Z,20.67
2022-08-21T08:46:02.362Z,20.74
2022-08-21T08:47:02.388Z,20.78
2022-08-21T08:48:02.414Z,20.86
2022-08-21T08:49:02.437Z,20.83
2022-08-21T08:50:02.471Z,20.80
2022-08-21T08:51:02.483Z,20.82
2022-08-21T08:52:02.510Z,20.89
2022-08-21T08:53:02.533Z,20.85
2022-08-21T08:54:02.555Z,20.85
2022-08-21T08:55:02.582Z,20.86
2022-08-21T08:56:02.604Z,20.98
2022-08-21T08:57:02.629Z,20.92
2022-08-21T08:58:02.652Z,20.98
2022-08-21T08:59:02.682Z,21.07
2022-08-21T09:00:02.723Z,21.05
2022-08-21T09:01:02.776Z,21.05
2022-08-21T09:02:02.753Z,21.10
2022-08-21T09:03:02.775Z,21.05
2022-08-21T09:04:02.797Z,21.20
2022-08-21T09:05:02.842Z,21.20
2022-08-21T09:06:02.864Z,21.28
2022-08-21T09:07:02.871Z,21.23
2022-08-21T09:08:02.914Z,21.26
2022-08-21T09:09:02.919Z,21.33
2022-08-21T09:10:02.993Z,21.37
2022-08-21T09:11:02.968Z,21.35
2022-08-21T09:12:02.994Z,21.44
2022-08-21T09:13:03.017Z,21.45
2022-08-21T09:14:03.041Z,21.56
2022-08-21T09:15:03.068Z,21.50
2022-08-21T09:16:03.090Z,21.54
2022-08-21T09:17:03.114Z,21.59
2022-08-21T09:18:07.699Z,21.62
2022-08-21T09:19:03.166Z,21.58
2022-08-21T09:20:03.191Z,21.68
2022-08-21T09:21:03.213Z,21.68
2022-08-21T09:22:03.240Z,21.65
2022-08-21T09:23:03.263Z,21.65
2022-08-21T09:24:03.288Z,21.69
2022-08-21T09:25:03.315Z,21.80
2022-08-21T09:26:03.337Z,21.80
2022-08-21T09:27:03.363Z,21.92
2022-08-21T09:28:03.387Z,21.85
2022-08-21T09:29:03.419Z,21.89
2022-08-21T09:30:03.441Z,21.89
2022-08-21T09:31:03.460Z,21.88
2022-08-21T09:32:03.487Z,21.83
2022-08-21T09:33:03.511Z,21.85
2022-08-21T09:34:03.536Z,21.91
2022-08-21T09:35:03.561Z,21.88
2022-08-21T09:36:03.587Z,21.91
2022-08-21T09:37:03.616Z,22.03
2022-08-21T09:38:03.633Z,22.04
2022-08-21T09:39:03.660Z,22.03
2022-08-21T09:40:03.730Z,22.10
2022-08-21T09:41:03.722Z,22.18
2022-08-21T09:42:03.738Z,22.28
2022-08-21T09:43:03.761Z,22.33
2022-08-21T09:44:03.786Z,22.40
2022-08-21T09:45:03.810Z,22.40
2022-08-21T09:46:03.834Z,22.46
2022-08-21T09:47:03.859Z,22.43
2022-08-21T09:48:03.888Z,22.58
2022-08-21T09:49:03.910Z,22.58
2022-08-21T09:50:03.937Z,22.70
2022-08-21T09:51:03.962Z,22.76
2022-08-21T09:52:03.987Z,22.78
2022-08-21T09:53:04.013Z,22.67
2022-08-21T09:54:04.047Z,22.71
2022-08-21T09:55:04.065Z,22.70
2022-08-21T09:56:04.089Z,22.73
2022-08-21T09:57:04.112Z,22.78
2022-08-21T09:58:04.141Z,22.70
2022-08-21T09:59:04.173Z,22.78
2022-08-21T10:00:04.192Z,22.76
2022-08-21T10:01:04.254Z,22.73
2022-08-21T10:02:04.240Z,22.89
2022-08-21T10:03:04.267Z,22.93
2022-08-21T10:04:04.295Z,22.93
2022-08-21T10:05:04.320Z,23.01
2022-08-21T10:06:04.344Z,22.93
2022-08-21T10:07:04.372Z,22.98
2022-08-21T10:08:04.396Z,23.06
2022-08-21T10:09:04.422Z,23.07
2022-08-21T10:10:04.448Z,23.06
2022-08-21T10:11:04.482Z,23.13
2022-08-21T10:12:04.519Z,23.01
2022-08-21T10:13:04.524Z,23.01
2022-08-21T10:14:04.551Z,23.07
2022-08-21T10:15:08.445Z,23.01
2022-08-21T10:16:04.603Z,23.07
2022-08-21T10:17:04.637Z,23.16
2022-08-21T10:18:04.654Z,23.04
2022-08-21T10:19:04.681Z,23.06
2022-08-21T10:20:04.709Z,23.14
2022-08-21T10:21:04.732Z,23.25
2022-08-21T10:22:04.764Z,23.23
2022-08-21T10:23:04.785Z,23.34
2022-08-21T10:24:04.816Z,23.34
2022-08-21T10:25:04.837Z,23.42
2022-08-21T10:26:12.921Z,23.49
2022-08-21T10:27:04.893Z,23.51
2022-08-21T10:28:04.917Z,23.52
2022-08-21T10:29:04.946Z,23.59
2022-08-21T10:30:04.974Z,23.67
2022-08-21T10:31:05.003Z,23.71
2022-08-21T10:32:05.030Z,23.81
2022-08-21T10:33:05.055Z,23.81
2022-08-21T10:34:05.085Z,23.85
2022-08-21T10:35:05.108Z,23.84
2022-08-21T10:36:05.136Z,23.91
2022-08-21T10:37:10.976Z,23.88
2022-08-21T10:38:05.196Z,24.01
2022-08-21T10:39:26.058Z,23.96
2022-08-21T10:40:05.279Z,24.09
2022-08-21T10:41:05.272Z,24.19
2022-08-21T10:42:05.298Z,24.07
2022-08-21T10:43:05.327Z,24.19
2022-08-21T10:44:05.354Z,24.18
2022-08-21T10:45:05.381Z,24.28
2022-08-21T10:46:05.412Z,24.47
2022-08-21T10:47:05.438Z,24.58
2022-08-21T10:48:05.466Z,24.65
2022-08-21T10:49:05.491Z,24.68
2022-08-21T10:50:05.524Z,24.77
2022-08-21T10:51:05.547Z,24.81
2022-08-21T10:52:05.578Z,24.92
2022-08-21T10:53:05.602Z,24.97
2022-08-21T10:54:05.633Z,25.07
2022-08-21T10:55:05.659Z,25.15
2022-08-21T10:56:05.687Z,25.31
2022-08-21T10:57:05.716Z,25.39
2022-08-21T10:58:05.743Z,25.56
2022-08-21T10:59:05.773Z,25.61
2022-08-21T11:00:05.804Z,25.77
2022-08-21T11:01:05.995Z,25.85
2022-08-21T11:02:05.858Z,26.11
2022-08-21T11:03:05.889Z,26.42
2022-08-21T11:04:05.919Z,26.44
2022-08-21T11:05:05.950Z,26.49
2022-08-21T11:06:05.979Z,26.67
2022-08-21T11:07:06.010Z,26.85
2022-08-21T11:08:06.043Z,26.92
2022-08-21T11:09:06.079Z,27.03
2022-08-21T11:10:06.115Z,27.18
2022-08-21T11:11:08.696Z,27.45
2022-08-21T11:12:10.667Z,27.50
2022-08-21T11:13:06.193Z,27.60
2022-08-21T11:14:06.230Z,27.73
2022-08-21T11:15:06.259Z,27.66
2022-08-21T11:16:06.299Z,27.78
2022-08-21T11:17:06.322Z,27.93
2022-08-21T11:18:06.367Z,28.01
2022-08-21T11:19:06.386Z,27.94
2022-08-21T11:20:06.417Z,28.03
2022-08-21T11:21:06.443Z,27.95
2022-08-21T11:22:06.488Z,28.01
2022-08-21T11:23:06.813Z,28.22
2022-08-21T11:24:06.541Z,28.27
2022-08-21T11:25:06.581Z,28.35
2022-08-21T11:26:06.604Z,28.52
2022-08-21T11:27:06.644Z,28.55
2022-08-21T11:28:08.774Z,28.60
2022-08-21T11:29:06.700Z,28.75
2022-08-21T11:30:06.735Z,28.87
2022-08-21T11:31:06.786Z,28.90
2022-08-21T11:32:06.792Z,29.00
2022-08-21T11:33:06.824Z,29.03
2022-08-21T11:34:06.859Z,29.24
2022-08-21T11:35:06.898Z,29.22
2022-08-21T11:36:06.923Z,29.30
2022-08-21T11:37:06.953Z,29.30
2022-08-21T11:38:06.986Z,29.18
2022-08-21T11:39:07.018Z,29.24
2022-08-21T11:40:07.103Z,29.22
2022-08-21T11:41:07.083Z,29.16
2022-08-21T11:42:09.055Z,28.97
2022-08-21T11:43:07.148Z,29.12
2022-08-21T11:44:07.179Z,29.07
2022-08-21T11:45:07.210Z,29.02
2022-08-21T11:46:07.244Z,28.97
2022-08-21T11:47:07.274Z,28.89
2022-08-21T11:48:07.309Z,28.84
2022-08-21T11:49:07.339Z,28.84
2022-08-21T11:50:29.787Z,28.90
2022-08-21T11:51:07.404Z,28.82
2022-08-21T11:52:07.437Z,28.84
2022-08-21T11:53:07.463Z,28.86
2022-08-21T11:54:07.580Z,28.90
2022-08-21T11:55:07.527Z,28.97
2022-08-21T11:56:07.562Z,28.93
2022-08-21T11:57:07.594Z,29.00
2022-08-21T11:58:07.624Z,29.06
2022-08-21T11:59:07.654Z,29.34
2022-08-21T12:00:07.738Z,29.31
2022-08-21T12:01:07.717Z,29.30
2022-08-21T12:02:07.782Z,29.49
2022-08-21T12:03:07.780Z,29.40
2022-08-21T12:04:07.816Z,29.50
2022-08-21T12:05:08.882Z,29.47
2022-08-21T12:06:07.878Z,29.65
2022-08-21T12:07:07.909Z,29.71
2022-08-21T12:08:07.943Z,29.81
2022-08-21T12:09:07.973Z,29.80
2022-08-21T12:10:08.007Z,29.83
2022-08-21T12:11:08.040Z,29.80
2022-08-21T12:12:08.086Z,29.81
2022-08-21T12:13:08.103Z,29.71
2022-08-21T12:14:08.155Z,29.76
2022-08-21T12:15:08.175Z,29.83
2022-08-21T12:16:08.202Z,29.74
2022-08-21T12:17:12.154Z,29.89
2022-08-21T12:18:08.268Z,29.90
2022-08-21T12:19:08.301Z,30.05
2022-08-21T12:20:08.335Z,30.17
2022-08-21T12:21:08.369Z,30.35
2022-08-21T12:22:08.402Z,30.35
2022-08-21T12:23:12.787Z,30.62
2022-08-21T12:24:08.469Z,30.69
2022-08-21T12:25:08.500Z,30.93
2022-08-21T12:26:08.533Z,31.05
2022-08-21T12:27:08.573Z,31.44
2022-08-21T12:28:08.602Z,31.51
2022-08-21T12:29:08.635Z,31.66
2022-08-21T12:30:08.679Z,31.82
2022-08-21T12:31:08.706Z,32.00
2022-08-21T12:32:08.742Z,31.98
2022-08-21T12:33:08.774Z,32.08
2022-08-21T12:34:08.808Z,32.04
2022-08-21T12:35:08.843Z,32.17
2022-08-21T12:36:08.879Z,32.22
2022-08-21T12:37:08.913Z,32.29
2022-08-21T12:38:08.948Z,32.30
2022-08-21T12:39:08.987Z,32.41
2022-08-21T12:40:09.104Z,32.45
2022-08-21T12:41:09.053Z,32.48
2022-08-21T12:42:09.089Z,32.49
2022-08-21T12:43:09.125Z,32.51
2022-08-21T12:44:09.159Z,32.57
2022-08-21T12:45:09.194Z,32.75
2022-08-21T12:46:09.228Z,32.63
2022-08-21T12:47:09.266Z,32.79
2022-08-21T12:48:09.300Z,32.81
2022-08-21T12:49:09.341Z,32.53
2022-08-21T12:50:09.373Z,32.60
2022-08-21T12:51:09.410Z,32.46
2022-08-21T12:52:09.440Z,32.35
2022-08-21T12:53:20.695Z,32.30